Ana Sayfa
METAR-TAF:

METAR-TAF

Havaalanları :

Monroe, Kuzey Carolina, Amerika Birleşik Devletleri

Enlem: 35-01-01N, Boylam: 080-37-14W, yükseklik: 207 m

Güncel hava durumu gözlemi

Rapor saat 19:53 UTC de 1 saat ve 2 dakika önce yapıldı.
Rüzgar kuzey/kuzeydoğudan 17 kt ve 25 kt'a kadar ani rüzgarlar
Sıcaklık 10°C
Nem 43%
Basınç 1018 hPa
Görüş mesafesi: 16.1 km
4200 ft yükseklikte parçalı çok bulutlu
7000 ft yükseklikte çok bulutlu

METAR: KEQY 161953Z AUTO 03017G25KT 10SM BKN042 OVC070 10/M02 A3005 RMK AO2 PK WND 04026/1854 SLP190 T01001017 $

Saat: 15:55 (20:55 UTC)


TAF: eksik

4.000'den fazla havaalanı için hava durumu gözlemleri ve tahminleri (METAR ve TAF raporları).

Kullanılabilir istasyonlar harita üzerinde sarı ve kırmızı noktalarla gösterilir.

İstasyonun adını görmek için fareyi noktanın üzerinde gezdirin.

Sonrasında hava gözlem ve tahminlerini görmek için tıklayın.

Haritayı değiştirmek için: yaklaştırmak için siyah artı işaretli yeşil düğmeye ve uzaklaştırmak için de eksi işaretli düğmeye hızla tıklayın; bitişik haritalar için yeşil okları kullanın.


METAR-TAF: